Time,TemperatureF,DewpointF,PressureIn,WindDirection,WindDirectionDegrees,WindSpeedMPH,WindSpeedGustMPH,Humidity,HourlyPrecipIn,Conditions,Clouds,dailyrainin,SoftwareType,DateUTC
2013-01-21 00:12:00,45.3,10.7,30.01,SSE,157,4.2,-999.0,24,-99.99,,,0.00,Acu-Link.com,2013-01-21 08:12:00,
2013-01-21 00:27:00,43.7,13.6,30.01,SE,135,4.7,-999.0,29,-99.99,,,0.00,Acu-Link.com,2013-01-21 08:27:00,
2013-01-21 00:42:00,44.4,9.9,30.01,ESE,112,3.7,-999.0,24,-99.99,,,0.00,Acu-Link.com,2013-01-21 08:42:00,
2013-01-21 00:57:00,44.1,12.3,30.00,SE,135,5.3,-999.0,27,-99.99,,,0.00,Acu-Link.com,2013-01-21 08:57:00,
2013-01-21 01:32:00,43.9,12.9,30.00,ESE,112,3.7,-999.0,28,-99.99,,,0.00,Acu-Link.com,2013-01-21 09:32:00,
2013-01-21 01:47:00,43.7,13.6,30.00,SSE,157,3.2,-999.0,29,-99.99,,,0.00,Acu-Link.com,2013-01-21 09:47:00,
2013-01-21 02:02:00,42.1,15.8,30.01,NNW,337,0.0,-999.0,34,-99.99,,,0.00,Acu-Link.com,2013-01-21 10:02:00,
2013-01-21 02:17:00,47.3,24.8,30.01,SSW,202,0.0,-999.0,41,-99.99,,,0.00,Acu-Link.com,2013-01-21 10:17:00,
2013-01-21 02:32:00,40.8,17.8,30.00,SSE,157,5.3,-999.0,39,-99.99,,,0.00,Acu-Link.com,2013-01-21 10:32:00,
2013-01-21 02:48:00,42.8,22.9,30.00,SSE,157,3.7,-999.0,45,-99.99,,,0.00,Acu-Link.com,2013-01-21 10:48:00,
2013-01-21 03:03:00,41.0,14.1,29.99,SE,135,3.7,-999.0,33,-99.99,,,0.00,Acu-Link.com,2013-01-21 11:03:00,
2013-01-21 03:18:00,41.7,14.0,29.98,SE,135,4.7,-999.0,32,-99.99,,,0.00,Acu-Link.com,2013-01-21 11:18:00,
2013-01-21 03:33:00,40.6,15.1,29.98,South,180,3.7,-999.0,35,-99.99,,,0.00,Acu-Link.com,2013-01-21 11:33:00,
2013-01-21 03:49:00,38.8,15.4,29.98,NNW,337,3.7,-999.0,38,-99.99,,,0.00,Acu-Link.com,2013-01-21 11:49:00,
2013-01-21 04:04:00,43.2,17.4,29.98,NNE,22,0.0,-999.0,35,-99.99,,,0.00,Acu-Link.com,2013-01-21 12:04:00,
2013-01-21 04:19:00,45.3,26.8,29.97,SW,225,0.0,-999.0,48,-99.99,,,0.00,Acu-Link.com,2013-01-21 12:19:00,
2013-01-21 04:35:00,44.6,36.8,29.97,SSE,157,2.2,-999.0,74,-99.99,,,0.00,Acu-Link.com,2013-01-21 12:35:00,
2013-01-21 04:50:00,38.3,18.8,29.98,SE,135,3.7,-999.0,45,-99.99,,,0.00,Acu-Link.com,2013-01-21 12:50:00,
2013-01-21 05:05:00,37.9,19.5,29.97,SE,135,2.2,-999.0,47,-99.99,,,0.00,Acu-Link.com,2013-01-21 13:05:00,
2013-01-21 05:21:00,39.2,15.1,29.98,SE,135,2.7,-999.0,37,-99.99,,,0.00,Acu-Link.com,2013-01-21 13:21:00,
2013-01-21 05:36:00,38.3,16.1,29.98,SSW,202,5.3,-999.0,40,-99.99,,,0.00,Acu-Link.com,2013-01-21 13:36:00,
2013-01-21 05:51:00,39.0,16.2,30.00,SSE,157,4.2,-999.0,39,-99.99,,,0.00,Acu-Link.com,2013-01-21 13:51:00,
2013-01-21 06:07:00,39.4,16.5,29.99,South,180,4.7,-999.0,39,-99.99,,,0.00,Acu-Link.com,2013-01-21 14:07:00,
2013-01-21 06:22:00,45.9,19.8,29.99,SW,225,0.0,-999.0,35,-99.99,,,0.00,Acu-Link.com,2013-01-21 14:22:00,
2013-01-21 06:37:00,41.7,22.5,30.01,SSW,202,2.7,-999.0,46,-99.99,,,0.00,Acu-Link.com,2013-01-21 14:37:00,
2013-01-21 06:53:00,37.9,16.9,30.00,South,180,3.7,-999.0,42,-99.99,,,0.00,Acu-Link.com,2013-01-21 14:53:00,
2013-01-21 07:08:00,46.6,40.8,30.01,SSW,202,1.7,-999.0,80,-99.99,,,0.00,Acu-Link.com,2013-01-21 15:08:00,
2013-01-21 07:23:00,46.2,18.7,30.01,SSE,157,4.2,-999.0,33,-99.99,,,0.00,Acu-Link.com,2013-01-21 15:23:00,
2013-01-21 07:39:00,43.5,14.9,30.01,ESE,112,5.3,-999.0,31,-99.99,,,0.00,Acu-Link.com,2013-01-21 15:39:00,
2013-01-21 07:54:00,45.0,15.5,30.02,SE,135,5.8,-999.0,30,-99.99,,,0.00,Acu-Link.com,2013-01-21 15:54:00,
2013-01-21 08:09:00,49.6,16.1,30.02,South,180,3.2,-999.0,26,-99.99,,,0.00,Acu-Link.com,2013-01-21 16:09:00,
2013-01-21 08:25:00,48.9,18.1,30.03,WNW,292,2.7,-999.0,29,-99.99,,,0.00,Acu-Link.com,2013-01-21 16:25:00,
2013-01-21 08:40:00,50.4,20.2,30.03,West,270,0.0,-999.0,30,-99.99,,,0.00,Acu-Link.com,2013-01-21 16:40:00,
2013-01-21 08:55:00,54.9,19.8,30.03,SW,225,0.0,-999.0,25,-99.99,,,0.00,Acu-Link.com,2013-01-21 16:55:00,
2013-01-21 09:10:00,58.5,17.6,30.03,ESE,112,1.7,-999.0,20,-99.99,,,0.00,Acu-Link.com,2013-01-21 17:10:00,
2013-01-21 09:26:00,56.7,20.3,30.03,NNW,337,2.7,-999.0,24,-99.99,,,0.00,Acu-Link.com,2013-01-21 17:26:00,
2013-01-21 09:41:00,60.6,16.9,30.03,SSW,202,3.2,-999.0,18,-99.99,,,0.00,Acu-Link.com,2013-01-21 17:41:00,
2013-01-21 09:56:00,64.8,14.5,30.03,SSE,157,3.2,-999.0,14,-99.99,,,0.00,Acu-Link.com,2013-01-21 17:56:00,
2013-01-21 10:12:00,65.1,9.3,30.03,West,270,1.1,-999.0,11,-99.99,,,0.00,Acu-Link.com,2013-01-21 18:12:00,
2013-01-21 10:27:00,65.1,2.4,30.04,West,270,5.3,-999.0,8,-99.99,,,0.00,Acu-Link.com,2013-01-21 18:27:00,
2013-01-21 10:42:00,65.3,2.5,30.04,NNW,337,4.2,-999.0,8,-99.99,,,0.00,Acu-Link.com,2013-01-21 18:42:00,
2013-01-21 10:58:00,65.5,7.5,30.04,SW,225,4.7,-999.0,10,-99.99,,,0.00,Acu-Link.com,2013-01-21 18:58:00,
2013-01-21 11:13:00,67.6,4.2,30.03,WNW,292,2.7,-999.0,8,-99.99,,,0.00,Acu-Link.com,2013-01-21 19:13:00,
2013-01-21 11:28:00,68.5,2.0,30.03,NE,45,3.2,-999.0,7,-99.99,,,0.00,Acu-Link.com,2013-01-21 19:28:00,
2013-01-21 11:44:00,71.6,1.0,30.01,SE,135,3.2,-999.0,6,-99.99,,,0.00,Acu-Link.com,2013-01-21 19:44:00,
2013-01-21 11:59:00,70.5,0.2,30.01,WNW,292,0.0,-999.0,6,-99.99,,,0.00,Acu-Link.com,2013-01-21 19:59:00,
2013-01-21 12:14:00,72.3,-2.4,30.00,NNE,22,1.7,-999.0,5,-99.99,,,0.00,Acu-Link.com,2013-01-21 20:14:00,
2013-01-21 12:30:00,74.5,-0.8,29.99,SSE,157,3.7,-999.0,5,-99.99,,,0.00,Acu-Link.com,2013-01-21 20:30:00,
2013-01-21 12:45:00,74.8,-5.3,29.98,South,180,1.7,-999.0,4,-99.99,,,0.00,Acu-Link.com,2013-01-21 20:45:00,
2013-01-21 13:00:00,76.6,-9.9,29.99,SE,135,2.7,-999.0,3,-99.99,,,0.00,Acu-Link.com,2013-01-21 21:00:00,
2013-01-21 13:16:00,75.2,-10.9,29.97,WNW,292,4.2,-999.0,3,-99.99,,,0.00,Acu-Link.com,2013-01-21 21:16:00,
2013-01-21 13:31:00,75.9,-31.3,29.97,WSW,247,2.7,-999.0,1,-99.99,,,0.00,Acu-Link.com,2013-01-21 21:31:00,
2013-01-21 13:46:00,76.8,-30.7,29.96,NNW,337,2.7,-999.0,1,-99.99,,,0.00,Acu-Link.com,2013-01-21 21:46:00,
2013-01-21 14:01:00,77.2,-30.5,29.97,WSW,247,3.7,-999.0,1,-99.99,,,0.00,Acu-Link.com,2013-01-21 22:01:00,
2013-01-21 14:17:00,77.0,-17.7,29.95,NNW,337,6.3,-999.0,2,-99.99,,,0.00,Acu-Link.com,2013-01-21 22:17:00,
2013-01-21 14:32:00,77.9,-30.1,29.95,WSW,247,4.7,-999.0,0,-99.99,,,0.00,Acu-Link.com,2013-01-21 22:32:00,
2013-01-21 14:47:00,78.3,-29.9,29.95,West,270,5.8,-999.0,0,-99.99,,,0.00,Acu-Link.com,2013-01-21 22:47:00,
2013-01-21 15:03:00,78.3,-29.9,29.95,West,270,6.8,-999.0,0,-99.99,,,0.00,Acu-Link.com,2013-01-21 23:03:00,
2013-01-21 15:18:00,78.1,-30.0,29.96,WSW,247,5.3,-999.0,0,-99.99,,,0.00,Acu-Link.com,2013-01-21 23:18:00,
2013-01-21 15:33:00,77.7,-30.2,29.95,West,270,6.3,-999.0,0,-99.99,,,0.00,Acu-Link.com,2013-01-21 23:33:00,
2013-01-21 15:48:00,77.7,-30.2,29.94,North,0,3.2,-999.0,0,-99.99,,,0.00,Acu-Link.com,2013-01-21 23:48:00,
2013-01-21 16:04:00,77.0,-30.6,29.94,WNW,292,1.1,-999.0,0,-99.99,,,0.00,Acu-Link.com,2013-01-22 00:04:00,
2013-01-21 16:19:00,77.7,-30.2,29.95,West,270,2.7,-999.0,0,-99.99,,,0.00,Acu-Link.com,2013-01-22 00:19:00,
2013-01-21 16:35:00,79.5,-29.1,29.94,WSW,247,2.7,-999.0,0,-99.99,,,0.00,Acu-Link.com,2013-01-22 00:35:00,
2013-01-21 16:50:00,78.3,-29.9,29.94,East,90,0.0,-999.0,1,-99.99,,,0.00,Acu-Link.com,2013-01-22 00:50:00,
2013-01-21 17:05:00,72.9,-20.3,29.94,ESE,112,3.7,-999.0,2,-99.99,,,0.00,Acu-Link.com,2013-01-22 01:05:00,
2013-01-21 17:20:00,69.8,-14.5,29.96,SE,135,4.7,-999.0,3,-99.99,,,0.00,Acu-Link.com,2013-01-22 01:20:00,
2013-01-21 17:36:00,67.3,-5.9,29.95,SE,135,5.3,-999.0,5,-99.99,,,0.00,Acu-Link.com,2013-01-22 01:36:00,
2013-01-21 17:51:00,64.8,7.0,29.95,SSE,157,4.7,-999.0,10,-99.99,,,0.00,Acu-Link.com,2013-01-22 01:51:00,
2013-01-21 18:06:00,62.8,5.4,29.96,South,180,5.3,-999.0,10,-99.99,,,0.00,Acu-Link.com,2013-01-22 02:06:00,
2013-01-21 18:22:00,62.6,5.3,29.96,SSE,157,4.7,-999.0,10,-99.99,,,0.00,Acu-Link.com,2013-01-22 02:22:00,
2013-01-21 18:37:00,62.2,7.1,29.97,East,90,8.3,-999.0,11,-99.99,,,0.00,Acu-Link.com,2013-01-22 02:37:00,
2013-01-21 18:52:00,61.5,6.5,29.96,SSE,157,5.8,-999.0,11,-99.99,,,0.00,Acu-Link.com,2013-01-22 02:52:00,
2013-01-21 19:08:00,61.0,4.1,29.97,SSE,157,6.8,-999.0,10,-99.99,,,0.00,Acu-Link.com,2013-01-22 03:08:00,
2013-01-21 19:23:00,60.4,5.7,29.97,ESE,112,6.3,-999.0,11,-99.99,,,0.00,Acu-Link.com,2013-01-22 03:23:00,
2013-01-21 19:38:00,61.5,-0.3,29.97,SSW,202,4.2,-999.0,8,-99.99,,,0.00,Acu-Link.com,2013-01-22 03:38:00,
2013-01-21 19:53:00,60.6,3.8,29.98,South,180,3.7,-999.0,10,-99.99,,,0.00,Acu-Link.com,2013-01-22 03:53:00,
2013-01-21 20:09:00,57.7,5.5,29.99,SE,135,5.3,-999.0,12,-99.99,,,0.00,Acu-Link.com,2013-01-22 04:09:00,
2013-01-21 20:24:00,54.9,8.1,29.99,SSE,157,3.7,-999.0,15,-99.99,,,0.00,Acu-Link.com,2013-01-22 04:24:00,
2013-01-21 20:39:00,52.7,9.1,30.01,SSW,202,1.7,-999.0,17,-99.99,,,0.00,Acu-Link.com,2013-01-22 04:39:00,
2013-01-21 20:55:00,52.2,7.4,30.01,SSE,157,2.2,-999.0,16,-99.99,,,0.00,Acu-Link.com,2013-01-22 04:55:00,
2013-01-21 21:25:00,50.5,8.6,30.03,ESE,112,3.2,-999.0,18,-99.99,,,0.00,Acu-Link.com,2013-01-22 05:25:00,
2013-01-21 21:40:00,50.4,9.7,30.03,ESE,112,4.2,-999.0,19,-99.99,,,0.00,Acu-Link.com,2013-01-22 05:40:00,
2013-01-21 21:56:00,49.5,10.1,30.04,ESE,112,0.0,-999.0,20,-99.99,,,0.00,Acu-Link.com,2013-01-22 05:56:00,
2013-01-21 22:11:00,48.7,10.5,30.04,SSE,157,4.7,-999.0,21,-99.99,,,0.00,Acu-Link.com,2013-01-22 06:11:00,
2013-01-21 22:26:00,48.2,10.1,30.04,SSE,157,3.7,-999.0,21,-99.99,,,0.00,Acu-Link.com,2013-01-22 06:26:00,
2013-01-21 22:41:00,48.4,9.2,30.04,ESE,112,3.7,-999.0,20,-99.99,,,0.00,Acu-Link.com,2013-01-22 06:41:00,
2013-01-21 22:56:00,48.4,9.2,30.04,South,180,4.2,-999.0,20,-99.99,,,0.00,Acu-Link.com,2013-01-22 06:56:00,
2013-01-21 23:12:00,47.3,8.3,30.04,NE,45,3.2,-999.0,20,-99.99,,,0.00,Acu-Link.com,2013-01-22 07:12:00,
2013-01-21 23:27:00,46.8,10.0,30.04,South,180,4.2,-999.0,22,-99.99,,,0.00,Acu-Link.com,2013-01-22 07:27:00,
2013-01-21 23:43:00,46.8,7.9,30.03,ENE,67,2.7,-999.0,20,-99.99,,,0.00,Acu-Link.com,2013-01-22 07:43:00,
2013-01-21 23:58:00,48.0,8.9,30.03,SSE,157,5.3,-999.0,20,-99.99,,,0.00,Acu-Link.com,2013-01-22 07:58:00,